Time;durP1;ratioP1;P1;durP2;ratioP2;P2;SDS_P1;SDS_P2;PMS_P1;PMS_P2;Temp;Humidity;BMP_temperature;BMP_pressure;BME280_temperature;BME280_humidity;BME280_pressure;Samples;Min_cycle;Max_cycle;Signal;HPM_P1;HPM_P2
2022/05/19 00:03:51;;;;;;;1.63;1.50;;;19.40;36.90;;;17.37;39.87;101882.44;12237557;19;20033;-78
2022/05/19 00:07:53;;;;;;;1.45;1.35;;;19.40;36.90;;;17.30;39.99;101877.63;12236152;19;20018;-78
2022/05/19 00:11:58;;;;;;;1.38;1.27;;;19.50;37.00;;;17.32;40.05;101902.16;12231968;19;20014;-79
2022/05/19 00:16:00;;;;;;;1.50;1.25;;;19.30;37.00;;;17.10;40.18;101860.47;12237968;19;20018;-78
2022/05/19 00:20:02;;;;;;;1.52;1.40;;;19.30;37.00;;;17.18;40.17;101889.84;12233948;19;20474;-78
2022/05/19 00:24:04;;;;;;;3.35;1.15;;;19.20;37.10;;;17.19;40.26;101896.81;12236868;19;20015;-78
2022/05/19 00:28:07;;;;;;;2.45;1.73;;;19.20;37.10;;;16.94;40.15;101868.53;12230330;19;20710;-78
2022/05/19 00:32:09;;;;;;;1.73;1.63;;;19.00;37.00;;;16.99;40.15;101869.91;12237563;19;20022;-78
2022/05/19 00:36:19;;;;;;;1.40;1.30;;;19.00;37.20;;;17.06;40.47;101886.19;12234100;19;20032;-78
2022/05/19 00:40:23;;;;;;;1.60;1.40;;;19.00;37.40;;;16.52;40.42;101812.22;12236518;19;20023;-78
2022/05/19 00:44:25;;;;;;;2.28;1.60;;;18.90;37.40;;;16.92;40.33;101884.44;12228284;19;20490;-78
2022/05/19 00:48:44;;;;;;;4.00;1.73;;;19.00;37.50;;;16.79;40.63;101868.53;12231930;19;20014;-78
2022/05/19 00:52:48;;;;;;;1.27;1.17;;;18.90;37.60;;;16.74;40.55;101870.59;12235313;19;20018;-78
2022/05/19 00:57:06;;;;;;;2.35;1.55;;;18.80;37.50;;;16.85;40.67;101885.78;12233303;19;20018;-78
2022/05/19 01:01:08;;;;;;;1.37;1.27;;;18.70;37.60;;;16.79;40.53;101892.25;12083051;19;2676023;-79
2022/05/19 01:05:21;;;;;;;1.35;1.25;;;18.70;37.40;;;16.68;40.80;101876.25;12233160;19;20371;-78
2022/05/19 01:09:24;;;;;;;2.58;1.30;;;18.70;37.50;;;16.63;40.57;101872.19;12232417;19;20014;-78
2022/05/19 01:13:30;;;;;;;2.47;1.30;;;18.60;37.40;;;16.69;40.53;101877.94;12235507;19;20018;-78
2022/05/19 01:17:35;;;;;;;1.33;1.20;;;18.50;37.50;;;16.58;40.85;101862.78;12235709;19;20023;-78
2022/05/19 01:21:37;;;;;;;1.30;1.20;;;18.50;37.60;;;16.75;40.52;101884.63;12236365;19;20111;-78
2022/05/19 01:26:29;;;;;;;5.05;1.38;;;18.40;37.60;;;16.62;40.79;101873.16;12232029;19;20015;-78
2022/05/19 01:30:32;;;;;;;3.05;1.20;;;18.60;37.60;;;16.52;40.63;101878.97;12236548;19;20352;-78
2022/05/19 01:34:34;;;;;;;2.28;1.38;;;18.50;37.50;;;16.43;40.77;101878.72;12228126;19;20363;-78
2022/05/19 01:38:36;;;;;;;1.50;1.40;;;18.50;37.60;;;16.34;40.78;101878.34;12231283;19;20025;-78
2022/05/19 01:43:25;;;;;;;2.50;1.20;;;18.40;38.00;;;16.29;41.31;101875.13;12237167;19;20015;-78
2022/05/19 01:47:38;;;;;;;;;;;18.30;37.80;;;16.25;40.58;101864.84;12241868;19;20347;-78
2022/05/19 01:52:09;;;;;;;1.65;1.08;;;18.30;37.30;;;16.09;41.13;101850.00;12242363;19;19918;-78
2022/05/19 01:56:36;;;;;;;1.52;1.35;;;18.20;37.90;;;16.12;41.09;101848.94;12250649;19;20451;-78
2022/05/19 02:00:39;;;;;;;1.30;1.20;;;18.20;38.00;;;16.02;40.95;101842.53;12248558;19;20011;-78
2022/05/19 02:05:28;;;;;;;2.08;1.50;;;18.10;37.90;;;16.18;41.03;101871.47;12239197;19;20019;-78
2022/05/19 02:09:55;;;;;;;1.80;1.33;;;18.10;38.10;;;16.04;41.27;101853.81;12247854;19;20102;-78
2022/05/19 02:14:07;;;;;;;1.30;1.20;;;17.90;38.10;;;15.80;41.11;101832.44;12245109;19;20497;-78
2022/05/19 02:18:09;;;;;;;1.60;1.50;;;17.90;38.10;;;15.75;41.29;101832.72;12247080;19;20057;-78
2022/05/19 02:22:16;;;;;;;1.50;1.40;;;17.90;38.10;;;15.90;41.67;101863.44;12248331;19;20025;-78
2022/05/19 02:26:18;;;;;;;1.70;1.50;;;17.70;38.10;;;15.81;41.55;101861.31;12241675;19;20349;-78
2022/05/19 02:30:25;;;;;;;2.50;1.52;;;17.90;38.20;;;15.73;41.82;101855.66;12243900;19;20492;-78
2022/05/19 02:34:26;;;;;;;1.27;1.23;;;17.80;38.30;;;15.81;41.85;101868.38;12243778;19;20074;-78
2022/05/19 02:38:28;;;;;;;1.58;1.30;;;17.80;38.50;;;15.68;41.65;101849.78;12245379;19;20015;-78
2022/05/19 02:42:29;;;;;;;1.08;1.05;;;17.80;38.50;;;15.72;41.82;101859.25;12242232;19;20019;-78
2022/05/19 02:46:31;;;;;;;2.00;1.15;;;17.70;38.40;;;15.63;41.91;101857.09;12242806;19;20056;-78
2022/05/19 02:50:33;;;;;;;1.58;1.48;;;17.60;38.40;;;15.62;41.92;101860.66;12243850;19;20014;-78
2022/05/19 02:54:35;;;;;;;2.22;1.45;;;17.50;38.40;;;15.60;41.82;101866.00;12242815;19;20042;-78
2022/05/19 02:58:37;;;;;;;1.15;1.13;;;17.60;38.60;;;15.63;41.92;101875.53;12241358;19;20555;-78
2022/05/19 03:02:45;;;;;;;2.70;1.30;;;17.40;38.50;;;15.38;42.10;101832.19;12243800;19;20456;-78
2022/05/19 03:06:47;;;;;;;1.20;1.10;;;17.60;38.70;;;15.53;42.09;101866.44;12239024;19;20081;-78
2022/05/19 03:10:49;;;;;;;1.38;1.27;;;17.60;38.70;;;15.13;42.15;101803.81;12243589;19;20021;-78
2022/05/19 03:14:50;;;;;;;1.52;1.42;;;17.50;38.90;;;15.44;42.40;101858.16;12240180;19;20507;-78
2022/05/19 03:18:52;;;;;;;2.00;1.15;;;17.40;38.90;;;15.27;42.34;101850.38;12242898;19;20035;-78
2022/05/19 03:22:53;;;;;;;2.15;1.80;;;17.30;39.00;;;15.27;42.58;101859.13;12235824;19;20014;-78
2022/05/19 03:26:55;;;;;;;1.67;1.50;;;17.40;39.20;;;15.23;42.64;101848.88;12239771;19;20043;-78
2022/05/19 03:30:57;;;;;;;2.28;1.20;;;17.20;39.10;;;15.30;42.69;101870.41;12238633;19;20373;-78
2022/05/19 03:34:59;;;;;;;1.38;1.27;;;17.20;39.20;;;15.16;42.78;101842.25;12238744;19;20337;-79
2022/05/19 03:39:01;;;;;;;1.30;1.20;;;17.20;39.30;;;15.15;42.80;101849.31;12238847;19;20036;-78
2022/05/19 03:43:02;;;;;;;1.45;1.25;;;17.30;39.40;;;15.17;42.83;101855.31;12240866;19;20006;-78
2022/05/19 03:47:05;;;;;;;1.58;1.30;;;17.30;39.50;;;15.18;42.89;101856.19;12241302;19;20038;-78
2022/05/19 03:51:15;;;;;;;1.50;1.27;;;17.30;39.60;;;15.29;43.27;101885.38;12240524;19;20099;-78
2022/05/19 03:55:16;;;;;;;2.20;1.30;;;17.20;39.80;;;15.14;43.18;101849.38;12239305;19;20080;-78
2022/05/19 03:59:19;;;;;;;1.73;1.27;;;17.30;39.90;;;15.20;43.14;101870.06;12237459;19;20354;-78
2022/05/19 04:03:22;;;;;;;1.77;1.38;;;17.20;40.00;;;14.98;43.32;101836.22;12239399;19;20011;-78
2022/05/19 04:07:24;;;;;;;1.33;1.23;;;17.10;40.00;;;15.11;43.43;101860.06;12233775;19;20495;-78
2022/05/19 04:11:26;;;;;;;3.65;1.50;;;17.20;40.20;;;14.85;43.46;101827.31;12238667;19;20021;-78
2022/05/19 04:15:29;;;;;;;4.03;1.20;;;17.20;40.20;;;15.10;43.67;101871.56;12238113;19;20011;-78
2022/05/19 04:19:31;;;;;;;9.75;1.27;;;17.20;40.40;;;14.86;43.74;101818.53;12236048;19;20019;-78
2022/05/19 04:23:34;;;;;;;1.85;1.35;;;17.20;40.40;;;15.14;43.76;101876.53;12229288;19;20488;-78
2022/05/19 04:27:36;;;;;;;1.30;1.15;;;17.00;40.50;;;15.09;43.94;101865.41;12239609;19;20027;-78
2022/05/19 04:31:37;;;;;;;1.35;1.20;;;17.20;40.80;;;15.14;43.95;101878.31;12236806;19;20019;-78
2022/05/19 04:35:39;;;;;;;2.55;1.70;;;17.10;40.80;;;14.87;44.18;101821.06;12232342;19;20094;-78
2022/05/19 04:39:41;;;;;;;1.30;1.20;;;17.00;40.80;;;15.08;44.17;101850.56;12237567;19;20029;-78
2022/05/19 04:43:43;;;;;;;2.55;1.02;;;17.20;40.90;;;15.23;44.21;101870.78;12227327;19;20044;-78
2022/05/19 04:47:45;;;;;;;1.92;1.20;;;17.30;41.30;;;15.12;44.39;101836.34;12233817;19;20018;-78
2022/05/19 04:51:46;;;;;;;3.47;1.50;;;17.10;41.30;;;15.17;44.45;101838.69;12229062;19;20364;-78
2022/05/19 04:55:49;;;;;;;2.10;1.48;;;17.20;41.40;;;15.46;44.39;101877.34;12234406;19;20015;-78
2022/05/19 04:59:50;;;;;;;1.27;1.17;;;17.30;41.60;;;15.47;44.67;101859.75;12230603;19;20022;-78
2022/05/19 05:03:52;;;;;;;2.50;2.08;;;17.40;41.70;;;15.62;44.64;101872.03;12230684;19;20014;-78
2022/05/19 05:07:53;;;;;;;1.63;1.52;;;17.50;41.70;;;15.77;44.51;101874.75;12232206;19;20010;-78
2022/05/19 05:11:55;;;;;;;1.60;1.50;;;17.60;41.70;;;15.88;44.75;101867.94;12228376;19;20010;-78
2022/05/19 05:15:58;;;;;;;1.52;1.40;;;17.70;42.00;;;15.78;44.57;101834.31;12232108;19;20026;-78
2022/05/19 05:19:59;;;;;;;3.67;1.30;;;17.70;42.00;;;15.90;44.91;101839.72;12232968;19;20021;-78
2022/05/19 05:24:01;;;;;;;2.42;1.35;;;17.90;42.00;;;16.00;44.78;101831.25;12239439;19;20426;-78
2022/05/19 05:28:03;;;;;;;2.22;1.40;;;18.00;41.90;;;16.40;44.72;101868.34;12242805;19;20006;-78
2022/05/19 05:32:05;;;;;;;1.27;1.23;;;18.20;41.70;;;16.65;44.72;101868.53;12239857;19;20018;-78
2022/05/19 05:36:07;;;;;;;2.88;1.40;;;18.40;41.90;;;16.84;44.60;101851.56;12239992;19;20018;-78
2022/05/19 05:40:13;;;;;;;1.85;1.50;;;18.60;41.60;;;17.23;44.33;101866.66;12245709;19;20035;-78
2022/05/19 05:44:15;;;;;;;2.03;1.38;;;18.80;41.80;;;17.53;44.28;101862.94;12235116;19;20015;-83
2022/05/19 05:48:19;;;;;;;3.22;2.17;;;19.00;41.30;;;17.91;44.19;101876.25;12239543;19;20011;-79
2022/05/19 05:52:21;;;;;;;1.63;1.52;;;19.60;41.30;;;18.26;44.13;101880.94;12241405;19;20030;-79
2022/05/19 05:56:23;;;;;;;2.42;1.55;;;19.60;41.10;;;18.33;44.01;101838.09;12240826;19;20014;-78
2022/05/19 06:00:25;;;;;;;2.15;1.65;;;19.90;40.80;;;18.89;43.66;101893.22;12237762;19;20010;-79
2022/05/19 06:04:27;;;;;;;1.75;1.65;;;20.30;40.80;;;18.92;43.52;101848.00;12238001;19;20017;-80
2022/05/19 06:08:28;;;;;;;4.30;2.08;;;20.50;40.60;;;19.32;43.50;101873.38;12240232;19;20114;-80
2022/05/19 06:12:30;;;;;;;5.53;1.60;;;20.80;40.50;;;19.56;43.24;101878.66;12237765;19;20480;-80
2022/05/19 06:16:32;;;;;;;1.63;1.52;;;21.00;40.30;;;19.69;43.18;101868.88;12238483;19;20168;-79
2022/05/19 06:20:35;;;;;;;2.22;1.67;;;21.20;40.20;;;19.88;43.08;101869.16;12239341;19;20014;-78
2022/05/19 06:24:36;;;;;;;3.90;1.90;;;21.50;40.00;;;19.70;43.10;101830.78;12236105;19;20014;-78
2022/05/19 06:28:38;;;;;;;1.75;1.65;;;21.60;39.70;;;20.20;42.97;101888.84;12237830;19;20368;-78
2022/05/19 06:32:42;;;;;;;6.45;1.95;;;21.70;39.70;;;20.23;42.87;101878.84;12236412;19;20087;-78
2022/05/19 06:36:43;;;;;;;2.40;1.67;;;21.90;39.60;;;20.45;42.95;101882.47;12237863;19;20496;-78
2022/05/19 06:40:45;;;;;;;2.63;1.70;;;22.00;39.60;;;20.61;43.07;101877.69;12236842;19;20022;-78
2022/05/19 06:44:47;;;;;;;2.08;1.88;;;22.20;39.70;;;20.76;42.39;101878.25;12237857;19;20048;-77
2022/05/19 06:48:48;;;;;;;2.63;2.00;;;22.40;39.30;;;20.93;42.64;101880.41;12237318;19;20464;-78
2022/05/19 06:53:03;;;;;;;3.95;1.65;;;22.50;39.40;;;21.05;42.56;101852.00;12235574;19;20426;-77
2022/05/19 06:57:05;;;;;;;1.83;1.70;;;22.70;39.50;;;21.24;42.19;101847.84;12230020;19;20019;-77
2022/05/19 07:01:06;;;;;;;1.77;1.67;;;22.90;39.20;;;21.47;42.49;101854.78;12239021;19;20292;-78
2022/05/19 07:05:09;;;;;;;2.28;1.98;;;23.00;39.00;;;21.59;41.95;101840.47;12238478;19;20011;-78
2022/05/19 07:09:11;;;;;;;1.70;1.60;;;23.20;38.90;;;21.68;42.02;101828.19;12237854;19;20014;-77
2022/05/19 07:13:12;;;;;;;2.15;1.75;;;23.40;38.80;;;21.98;41.86;101843.38;12215648;19;20606;-76
2022/05/19 07:17:14;;;;;;;2.80;2.00;;;23.40;38.70;;;22.08;41.70;101833.59;12223327;19;20024;-78
2022/05/19 07:21:18;;;;;;;2.42;2.20;;;23.70;38.80;;;22.28;41.76;101831.09;12225145;19;20007;-78
2022/05/19 07:25:20;;;;;;;2.40;2.20;;;23.60;38.40;;;22.24;41.64;101795.06;12213333;19;20015;-77
2022/05/19 07:29:23;;;;;;;2.58;2.17;;;24.00;38.20;;;22.58;41.49;101818.72;12223794;19;20413;-78
2022/05/19 07:33:28;;;;;;;3.05;2.42;;;24.20;38.20;;;22.76;41.01;101817.03;12222169;19;20695;-78
2022/05/19 07:37:29;;;;;;;2.08;1.95;;;24.50;38.10;;;22.98;41.13;101816.00;12219150;19;20388;-79
2022/05/19 07:41:32;;;;;;;2.05;1.83;;;24.40;38.00;;;22.97;40.85;101777.84;12224027;19;20760;-79
2022/05/19 07:45:37;;;;;;;2.00;1.90;;;24.60;38.40;;;23.39;41.07;101806.88;12216544;19;20602;-79
2022/05/19 07:49:43;;;;;;;;;;;24.80;37.90;;;23.61;40.55;101808.38;12222379;19;20018;-79
2022/05/19 07:53:44;;;;;;;2.88;1.88;;;25.10;38.20;;;23.79;40.71;101810.31;12219676;19;19915;-79
2022/05/19 07:57:47;;;;;;;1.70;1.60;;;25.20;37.80;;;23.63;40.72;101766.41;12224290;19;20014;-79
2022/05/19 08:01:49;;;;;;;4.15;2.08;;;25.40;37.70;;;23.87;40.36;101767.75;12219921;19;20018;-77
2022/05/19 08:05:52;;;;;;;2.78;2.17;;;25.40;37.50;;;24.08;40.06;101772.88;12218851;19;20043;-78
2022/05/19 08:18:33;;;;;;;3.13;1.70;;;26.00;37.30;;;24.78;39.95;101786.53;12212676;19;20047;-79
2022/05/19 08:22:35;;;;;;;2.45;1.98;;;26.20;37.20;;;25.07;39.74;101789.00;12213467;19;20050;-78
2022/05/19 08:26:36;;;;;;;2.40;2.20;;;26.40;37.20;;;25.16;39.21;101777.41;12211119;19;20014;-79
2022/05/19 08:30:38;;;;;;;2.03;1.83;;;26.60;36.80;;;25.29;39.00;101773.50;12214379;19;20371;-78
2022/05/19 08:34:39;;;;;;;3.50;1.70;;;26.80;36.80;;;25.49;39.26;101775.00;12209367;19;20014;-78
2022/05/19 08:38:41;;;;;;;2.20;2.00;;;26.90;36.70;;;25.71;39.41;101786.16;12211976;19;20400;-78
2022/05/19 08:42:49;;;;;;;3.55;2.05;;;27.10;36.90;;;25.89;39.25;101776.25;12211063;19;20109;-78
2022/05/19 08:46:53;;;;;;;1.83;1.52;;;27.30;36.60;;;25.99;38.89;101766.25;12211621;19;20035;-78
2022/05/19 08:51:16;;;;;;;2.73;1.97;;;27.40;36.60;;;26.23;38.53;101770.88;12208579;19;20022;-78
2022/05/19 08:55:19;;;;;;;1.83;1.73;;;27.60;36.70;;;26.45;38.58;101765.91;12209499;19;20019;-78
2022/05/19 08:59:50;;;;;;;2.95;2.10;;;27.90;37.00;;;26.79;38.26;101786.44;12223832;19;20029;-78
2022/05/19 09:04:18;;;;;;;2.47;2.28;;;28.10;36.50;;;26.89;38.29;101768.34;12218321;19;20101;-78
2022/05/19 09:08:49;;;;;;;2.25;2.08;;;28.30;36.30;;;27.10;37.99;101770.56;12230633;19;20025;-78
2022/05/19 09:13:16;;;;;;;2.25;2.05;;;28.50;36.10;;;27.27;38.23;101766.88;12229647;19;20042;-78
2022/05/19 09:17:18;;;;;;;2.60;2.22;;;28.70;36.20;;;27.48;37.92;101763.66;12230285;19;20439;-78
2022/05/19 09:21:19;;;;;;;4.38;2.17;;;28.90;36.20;;;27.64;37.92;101751.22;12232771;19;20018;-78
2022/05/19 09:25:21;;;;;;;2.92;2.10;;;29.00;36.10;;;27.89;37.70;101766.25;12225673;19;20017;-78
2022/05/19 09:29:39;;;;;;;4.65;2.03;;;29.30;36.00;;;27.93;37.30;101729.19;12226957;19;20695;-78
2022/05/19 09:33:44;;;;;;;2.40;2.20;;;29.50;35.70;;;28.30;37.21;101763.44;12229371;19;20319;-79
2022/05/19 09:37:51;;;;;;;1.95;1.85;;;29.60;35.50;;;28.21;37.27;101718.78;12224575;19;20033;-79
2022/05/19 09:41:55;;;;;;;2.13;1.65;;;29.80;35.30;;;28.61;37.06;101752.66;12230279;19;20085;-79
2022/05/19 09:46:16;;;;;;;2.20;1.88;;;30.00;35.20;;;28.79;36.55;101748.88;12228927;19;20380;-79
2022/05/19 09:50:27;;;;;;;3.25;1.90;;;30.10;35.00;;;28.84;36.19;101731.16;12226650;19;20093;-79
2022/05/19 09:54:31;;;;;;;1.73;1.63;;;30.30;34.70;;;29.03;36.15;101731.66;12226079;19;20020;-79
2022/05/19 09:58:40;;;;;;;4.18;1.90;;;30.30;34.70;;;29.22;35.96;101730.34;12226328;19;20022;-80
2022/05/19 10:02:51;;;;;;;2.08;1.70;;;30.60;35.10;;;29.47;35.58;101734.47;12229139;19;20480;-80
2022/05/19 10:07:06;;;;;;;2.60;1.95;;;30.70;34.20;;;29.58;35.56;101729.66;12226287;19;20018;-77
2022/05/19 10:11:13;;;;;;;1.92;1.70;;;31.00;34.50;;;29.71;35.33;101732.56;12226388;19;20086;-81
2022/05/19 10:15:19;;;;;;;3.20;1.48;;;31.10;34.20;;;29.71;35.13;101714.53;12223154;19;20050;-84
2022/05/19 10:19:36;;;;;;;1.98;1.70;;;31.20;33.80;;;29.86;35.25;101733.34;12228723;19;20010;-80
2022/05/19 10:23:49;;;;;;;1.75;1.65;;;31.10;33.60;;;30.01;34.74;101733.34;12219135;19;20360;-82
2022/05/19 10:32:48;;;;;;;1.50;1.40;;;31.50;33.60;;;30.20;34.64;101721.13;12222621;19;20022;-78
2022/05/19 10:37:08;;;;;;;1.60;1.50;;;31.50;33.60;;;30.29;34.43;101700.31;12220420;19;20029;-79
2022/05/19 10:41:34;;;;;;;2.30;1.70;;;31.70;33.80;;;30.36;34.69;101691.28;12225694;19;20033;-78
2022/05/19 10:45:44;;;;;;;1.42;1.33;;;31.80;33.50;;;30.53;34.38;101701.81;12225559;19;20366;-78
2022/05/19 10:50:14;;;;;;;2.10;1.80;;;32.10;33.40;;;30.54;33.75;101682.75;12218859;19;20389;-78
2022/05/19 10:54:40;;;;;;;2.13;1.40;;;32.00;33.00;;;30.62;33.65;101696.09;12222986;19;20013;-79
2022/05/19 10:59:17;;;;;;;2.85;1.70;;;32.00;32.60;;;30.63;33.42;101686.16;12227288;19;20066;-78
2022/05/19 11:03:38;;;;;;;2.10;1.40;;;32.10;32.80;;;30.63;33.70;101673.50;12224843;19;20026;-78
2022/05/19 11:08:10;;;;;;;1.63;1.52;;;32.10;32.90;;;30.72;33.12;101658.00;12224489;19;20018;-79
2022/05/19 11:12:55;;;;;;;1.60;1.50;;;32.20;32.70;;;30.83;33.18;101648.56;12225385;19;20028;-78
2022/05/19 11:17:24;;;;;;;2.80;1.83;;;32.20;32.90;;;30.86;33.16;101632.81;12225344;19;20047;-78
2022/05/19 11:21:42;;;;;;;1.70;1.60;;;32.30;32.60;;;30.91;32.94;101621.44;12223793;19;20078;-80
2022/05/19 11:30:22;;;;;;;2.55;1.65;;;32.50;32.30;;;31.05;32.79;101625.88;12223552;19;20426;-76
2022/05/19 11:34:45;;;;;;;1.73;1.63;;;32.50;32.00;;;31.02;32.53;101628.97;12220156;19;20014;-78
2022/05/19 11:39:36;;;;;;;3.03;1.45;;;32.50;32.00;;;30.98;32.57;101624.19;12222458;19;20018;-79
2022/05/19 11:43:51;;;;;;;1.98;1.63;;;32.50;31.80;;;30.93;31.95;101613.16;12219366;19;20019;-77
2022/05/19 11:57:45;;;;;;;3.55;2.10;;;32.60;31.80;;;31.09;32.00;101592.09;12220383;19;20716;-78
2022/05/19 12:01:52;;;;;;;2.40;1.35;;;32.60;31.90;;;31.21;31.71;101600.44;12221472;19;20032;-80
2022/05/19 12:06:12;;;;;;;2.75;1.85;;;32.60;31.60;;;31.24;31.79;101600.03;12219544;19;20025;-79
2022/05/19 12:10:19;;;;;;;1.75;1.48;;;32.60;31.50;;;31.24;31.52;101596.50;12222501;19;20094;-78
2022/05/19 12:14:24;;;;;;;2.67;1.70;;;32.80;31.50;;;31.24;31.32;101594.63;12218615;19;20377;-78
2022/05/19 12:18:27;;;;;;;1.80;1.70;;;32.60;31.40;;;31.22;31.83;101599.44;12219197;19;20014;-77
2022/05/19 12:22:43;;;;;;;1.40;1.30;;;32.60;31.50;;;31.23;31.51;101587.59;12222578;19;20607;-77
2022/05/19 12:27:04;;;;;;;1.73;1.30;;;32.60;31.30;;;31.23;31.03;101576.78;12219585;19;20029;-78
2022/05/19 12:35:43;;;;;;;2.60;1.67;;;32.70;31.00;;;31.26;30.94;101568.28;12214465;19;20401;-78
2022/05/19 12:39:50;;;;;;;2.58;1.52;;;32.70;31.20;;;31.39;31.10;101577.53;12221849;19;20014;-78
2022/05/19 12:43:53;;;;;;;2.78;1.58;;;32.70;31.10;;;31.48;30.74;101581.69;12216413;19;20035;-78
2022/05/19 12:47:58;;;;;;;1.92;1.80;;;32.70;30.80;;;31.57;30.66;101574.25;12216500;19;20374;-78
2022/05/19 12:52:11;;;;;;;1.70;1.60;;;32.90;31.00;;;31.61;30.52;101562.84;12215522;19;20043;-77
2022/05/19 12:56:42;;;;;;;3.67;1.80;;;32.90;30.70;;;31.69;30.38;101567.22;12209289;19;20092;-78
2022/05/19 13:00:44;;;;;;;1.65;1.55;;;33.00;30.80;;;31.61;30.38;101546.63;12214064;19;20603;-77
2022/05/19 13:05:12;;;;;;;2.00;1.80;;;33.00;30.50;;;31.68;29.82;101547.50;12214449;19;20014;-78
2022/05/19 13:09:19;;;;;;;3.63;1.70;;;32.90;30.30;;;31.68;29.93;101542.09;12215000;19;20491;-78
2022/05/19 13:13:31;;;;;;;2.88;2.10;;;32.90;30.50;;;31.71;29.72;101538.97;12211945;19;20021;-78
2022/05/19 13:17:42;;;;;;;1.95;1.83;;;33.00;30.40;;;31.70;29.74;101521.13;12214644;19;20862;-78
2022/05/19 13:21:58;;;;;;;4.82;1.75;;;33.00;30.40;;;31.67;29.88;101499.06;12218870;19;20014;-78
2022/05/19 13:26:24;;;;;;;2.30;1.80;;;32.90;30.40;;;31.78;29.46;101517.38;12212726;19;20010;-76
2022/05/19 13:30:40;;;;;;;;;;;33.10;30.20;;;31.63;30.40;101492.44;12218255;19;20022;-77
2022/05/19 13:34:48;;;;;;;5.25;1.70;;;33.10;31.40;;;31.70;29.76;101513.00;12213248;19;19986;-77
2022/05/19 13:39:16;;;;;;;3.83;1.50;;;33.10;30.40;;;31.69;29.82;101491.59;12213746;19;20019;-77
2022/05/19 13:43:33;;;;;;;3.35;1.45;;;33.00;30.20;;;31.69;29.46;101478.09;12212730;19;20389;-76
2022/05/19 13:47:35;;;;;;;1.90;1.80;;;33.00;30.30;;;31.55;29.65;101447.53;12226556;19;20582;-77
2022/05/19 13:51:45;;;;;;;1.85;1.50;;;33.10;30.40;;;31.79;29.48;101478.53;12217284;19;20014;-78
2022/05/19 13:55:58;;;;;;;2.03;1.42;;;33.20;30.20;;;31.90;29.39;101468.97;12224500;19;20015;-77
2022/05/19 14:00:07;;;;;;;1.60;1.50;;;33.20;30.10;;;32.06;29.26;101492.91;12228709;19;20006;-76
2022/05/19 14:04:16;;;;;;;2.75;1.63;;;33.30;30.00;;;32.03;29.01;101477.09;12221693;19;20015;-77
2022/05/19 14:08:22;;;;;;;1.52;1.42;;;33.30;30.00;;;31.91;28.98;101436.31;12221371;19;20022;-77
2022/05/19 14:12:49;;;;;;;1.40;1.30;;;33.40;30.00;;;32.06;28.71;101444.25;12221809;19;20018;-78
2022/05/19 14:16:51;;;;;;;1.55;1.45;;;33.40;30.00;;;32.15;28.99;101453.78;12220343;19;20031;-77
2022/05/19 14:21:03;;;;;;;1.80;1.70;;;33.40;29.90;;;32.05;28.85;101431.75;12227565;19;20018;-78
2022/05/19 14:25:09;;;;;;;1.73;1.63;;;33.40;29.80;;;31.94;28.55;101398.09;12221402;19;20036;-78
2022/05/19 14:29:27;;;;;;;1.80;1.27;;;33.50;29.70;;;32.10;28.34;101410.34;12225244;19;20015;-78
2022/05/19 14:33:50;;;;;;;1.63;1.48;;;33.50;29.60;;;32.13;28.49;101407.22;12225924;19;20006;-77
2022/05/19 14:38:11;;;;;;;1.70;1.60;;;33.50;29.70;;;32.14;28.19;101398.09;12221480;19;20048;-78
2022/05/19 14:46:49;;;;;;;1.33;1.23;;;33.50;29.60;;;32.22;28.02;101386.22;12227682;19;20045;-77
2022/05/19 14:50:52;;;;;;;2.42;1.38;;;33.60;29.60;;;32.12;28.38;101372.31;12221681;19;20019;-78
2022/05/19 14:54:54;;;;;;;1.40;1.30;;;33.50;29.50;;;32.01;28.12;101360.28;12221631;19;20025;-77
2022/05/19 14:59:22;;;;;;;1.60;1.50;;;33.50;29.60;;;32.23;28.00;101384.34;12199447;19;20576;-77
2022/05/19 15:03:24;;;;;;;2.15;1.50;;;33.50;29.60;;;32.26;28.06;101370.41;12221232;19;20048;-77
2022/05/19 15:07:36;;;;;;;1.10;1.10;;;33.70;29.40;;;32.29;27.70;101362.69;12223270;19;20018;-78
2022/05/19 15:11:40;;;;;;;1.52;1.30;;;33.30;29.10;;;32.25;27.88;101366.06;12218840;19;20081;-77
2022/05/19 15:15:42;;;;;;;2.22;1.60;;;33.70;29.20;;;32.09;27.62;101356.53;12218694;19;20126;-78
2022/05/19 15:19:47;;;;;;;1.65;1.30;;;33.40;29.00;;;32.01;27.66;101364.88;12224496;19;20006;-77
2022/05/19 15:23:49;;;;;;;2.05;1.50;;;33.50;29.10;;;31.93;27.77;101355.94;12219623;19;20042;-77
2022/05/19 15:27:51;;;;;;;1.27;1.17;;;33.40;29.00;;;31.93;27.46;101372.13;12216755;19;20061;-77
2022/05/19 15:31:54;;;;;;;1.13;1.02;;;33.40;29.00;;;31.61;27.58;101340.56;12220804;19;20082;-77
2022/05/19 15:35:56;;;;;;;3.70;1.70;;;33.30;29.00;;;31.68;27.57;101350.31;12210763;19;20022;-77
2022/05/19 15:39:58;;;;;;;1.60;1.30;;;33.20;28.90;;;31.67;27.47;101369.44;12215027;19;20018;-78
2022/05/19 15:43:59;;;;;;;1.55;1.38;;;33.10;29.10;;;31.58;27.59;101349.09;12214994;19;20380;-77
2022/05/19 15:48:01;;;;;;;1.92;0.80;;;33.30;29.40;;;31.51;27.56;101338.28;12216405;19;20366;-78
2022/05/19 15:52:03;;;;;;;1.73;1.08;;;32.90;28.90;;;31.59;27.26;101356.13;12213824;19;20019;-77
2022/05/19 15:56:05;;;;;;;1.13;1.08;;;33.00;28.90;;;31.52;27.46;101356.16;12217819;19;20025;-78
2022/05/19 16:00:09;;;;;;;1.50;1.40;;;33.00;29.10;;;31.65;27.38;101366.94;12217751;19;20030;-77
2022/05/19 16:04:13;;;;;;;1.17;1.17;;;32.90;28.90;;;31.56;27.15;101343.06;12214152;19;20547;-77
2022/05/19 16:08:14;;;;;;;1.20;1.00;;;32.90;28.80;;;31.60;26.60;101349.72;12220774;19;20167;-78
2022/05/19 16:12:17;;;;;;;1.13;1.08;;;32.90;28.60;;;31.25;26.70;101312.94;12218268;19;20018;-77
2022/05/19 16:16:19;;;;;;;1.20;1.10;;;32.80;28.20;;;31.47;26.56;101354.06;12220361;19;20018;-77
2022/05/19 16:20:21;;;;;;;2.75;1.23;;;32.80;28.50;;;31.45;26.44;101355.31;12215549;19;20022;-78
2022/05/19 16:24:23;;;;;;;1.23;1.13;;;32.80;28.50;;;31.29;26.51;101330.34;12219525;19;20014;-77
2022/05/19 16:28:25;;;;;;;2.70;1.10;;;32.70;28.50;;;31.26;26.66;101351.53;12219815;19;20122;-77
2022/05/19 16:32:27;;;;;;;3.45;1.10;;;32.70;28.50;;;31.16;26.52;101351.94;12217210;19;20103;-77
2022/05/19 16:36:31;;;;;;;1.20;0.98;;;32.60;28.50;;;30.91;26.55;101319.31;12219192;19;20503;-78
2022/05/19 16:40:33;;;;;;;0.95;0.95;;;32.60;28.40;;;31.02;26.78;101340.28;12213045;19;20053;-77
2022/05/19 16:44:34;;;;;;;4.82;1.20;;;32.50;28.50;;;31.04;26.45;101334.69;12216021;19;20376;-77
2022/05/19 16:48:38;;;;;;;3.10;1.10;;;32.30;28.20;;;31.02;26.32;101355.66;12217130;19;20015;-78
2022/05/19 16:52:40;;;;;;;1.83;1.13;;;32.40;28.30;;;30.92;26.33;101336.31;12217971;19;20025;-78
2022/05/19 17:01:04;;;;;;;3.72;1.00;;;32.40;28.20;;;30.91;26.42;101340.06;12220189;19;20006;-78
2022/05/19 17:05:08;;;;;;;1.05;0.95;;;32.20;28.30;;;30.73;25.98;101310.94;12212111;19;20025;-78
2022/05/19 17:09:09;;;;;;;0.90;0.90;;;32.30;28.10;;;30.84;25.83;101342.75;12221483;19;20078;-78
2022/05/19 17:13:30;;;;;;;0.90;0.90;;;32.30;28.10;;;30.76;25.60;101335.66;12199618;19;21024;-78
2022/05/19 17:17:33;;;;;;;1.42;0.93;;;32.10;28.00;;;30.48;26.03;101289.91;12221362;19;20010;-78
2022/05/19 17:21:34;;;;;;;2.00;1.10;;;32.00;28.20;;;30.56;25.96;101300.53;12230290;19;20031;-78
2022/05/19 17:25:39;;;;;;;1.00;0.90;;;31.90;28.10;;;30.69;25.96;101329.41;12230209;19;20014;-78
2022/05/19 17:29:41;;;;;;;;;;;32.10;28.20;;;30.59;26.52;101318.16;12227762;19;20007;-78
2022/05/19 17:33:43;;;;;;;0.77;0.70;;;31.80;28.70;;;30.41;26.05;101305.25;12209113;19;19923;-78
2022/05/19 17:37:45;;;;;;;1.05;0.85;;;31.90;28.30;;;30.24;26.20;101293.16;12227029;19;20467;-78
2022/05/19 17:41:46;;;;;;;0.75;0.70;;;31.90;28.40;;;30.28;26.26;101316.81;12230671;19;20034;-78
2022/05/19 17:45:48;;;;;;;3.05;1.20;;;31.80;28.10;;;30.13;26.40;101318.75;12229230;19;20452;-78